sensor_id;sensor_type;location;lat;lon;timestamp;P1;durP1;ratioP1;P2;durP2;ratioP2
3133;SDS011;1577;49.912;10.924;2023-07-24T00:00:52;12.90;;;3.57;;
3133;SDS011;1577;49.912;10.924;2023-07-24T00:03:18;12.70;;;2.83;;
3133;SDS011;1577;49.912;10.924;2023-07-24T00:05:43;13.17;;;3.00;;
3133;SDS011;1577;49.912;10.924;2023-07-24T00:08:09;12.50;;;2.90;;
3133;SDS011;1577;49.912;10.924;2023-07-24T00:10:34;14.10;;;3.10;;
3133;SDS011;1577;49.912;10.924;2023-07-24T00:13:00;12.60;;;3.10;;
3133;SDS011;1577;49.912;10.924;2023-07-24T00:15:26;13.07;;;3.40;;
3133;SDS011;1577;49.912;10.924;2023-07-24T00:17:52;13.13;;;2.93;;
3133;SDS011;1577;49.912;10.924;2023-07-24T00:20:17;13.20;;;3.33;;
3133;SDS011;1577;49.912;10.924;2023-07-24T00:22:43;13.07;;;3.33;;
3133;SDS011;1577;49.912;10.924;2023-07-24T00:25:09;16.07;;;3.50;;
3133;SDS011;1577;49.912;10.924;2023-07-24T00:27:34;13.43;;;3.40;;
3133;SDS011;1577;49.912;10.924;2023-07-24T00:30:00;12.77;;;3.07;;
3133;SDS011;1577;49.912;10.924;2023-07-24T00:32:26;14.17;;;3.30;;
3133;SDS011;1577;49.912;10.924;2023-07-24T00:34:51;13.03;;;3.23;;
3133;SDS011;1577;49.912;10.924;2023-07-24T00:37:17;12.50;;;3.07;;
3133;SDS011;1577;49.912;10.924;2023-07-24T00:39:42;13.53;;;3.20;;
3133;SDS011;1577;49.912;10.924;2023-07-24T00:42:08;12.83;;;3.10;;
3133;SDS011;1577;49.912;10.924;2023-07-24T00:44:33;12.87;;;3.13;;
3133;SDS011;1577;49.912;10.924;2023-07-24T00:46:59;15.40;;;3.70;;
3133;SDS011;1577;49.912;10.924;2023-07-24T00:49:25;13.93;;;3.10;;
3133;SDS011;1577;49.912;10.924;2023-07-24T00:51:50;13.17;;;2.70;;
3133;SDS011;1577;49.912;10.924;2023-07-24T00:54:17;15.63;;;3.53;;
3133;SDS011;1577;49.912;10.924;2023-07-24T00:56:44;13.90;;;3.77;;
3133;SDS011;1577;49.912;10.924;2023-07-24T00:59:10;12.00;;;2.90;;
3133;SDS011;1577;49.912;10.924;2023-07-24T01:01:36;12.83;;;3.30;;
3133;SDS011;1577;49.912;10.924;2023-07-24T01:04:05;13.83;;;3.37;;
3133;SDS011;1577;49.912;10.924;2023-07-24T01:06:32;14.17;;;3.53;;
3133;SDS011;1577;49.912;10.924;2023-07-24T01:08:57;12.70;;;3.27;;
3133;SDS011;1577;49.912;10.924;2023-07-24T01:14:08;13.83;;;3.93;;
3133;SDS011;1577;49.912;10.924;2023-07-24T01:16:42;15.20;;;3.73;;
3133;SDS011;1577;49.912;10.924;2023-07-24T01:19:12;17.93;;;3.73;;
3133;SDS011;1577;49.912;10.924;2023-07-24T01:27:25;13.77;;;3.33;;
3133;SDS011;1577;49.912;10.924;2023-07-24T01:29:51;14.80;;;3.60;;
3133;SDS011;1577;49.912;10.924;2023-07-24T01:32:18;12.53;;;3.10;;
3133;SDS011;1577;49.912;10.924;2023-07-24T01:34:44;16.03;;;3.57;;
3133;SDS011;1577;49.912;10.924;2023-07-24T01:37:10;14.33;;;3.37;;
3133;SDS011;1577;49.912;10.924;2023-07-24T01:39:37;13.33;;;3.50;;
3133;SDS011;1577;49.912;10.924;2023-07-24T01:42:05;13.90;;;3.60;;
3133;SDS011;1577;49.912;10.924;2023-07-24T01:44:31;14.33;;;3.80;;
3133;SDS011;1577;49.912;10.924;2023-07-24T01:46:56;15.60;;;3.47;;
3133;SDS011;1577;49.912;10.924;2023-07-24T01:49:22;13.60;;;3.20;;
3133;SDS011;1577;49.912;10.924;2023-07-24T01:51:48;14.60;;;4.27;;
3133;SDS011;1577;49.912;10.924;2023-07-24T01:54:13;14.90;;;4.00;;
3133;SDS011;1577;49.912;10.924;2023-07-24T01:56:39;14.90;;;3.70;;
3133;SDS011;1577;49.912;10.924;2023-07-24T01:59:04;13.30;;;3.67;;
3133;SDS011;1577;49.912;10.924;2023-07-24T02:01:30;14.60;;;3.60;;
3133;SDS011;1577;49.912;10.924;2023-07-24T02:03:56;15.03;;;4.57;;
3133;SDS011;1577;49.912;10.924;2023-07-24T02:06:22;14.20;;;3.70;;
3133;SDS011;1577;49.912;10.924;2023-07-24T02:08:47;15.77;;;4.00;;
3133;SDS011;1577;49.912;10.924;2023-07-24T02:11:14;14.90;;;3.63;;
3133;SDS011;1577;49.912;10.924;2023-07-24T02:13:43;14.03;;;3.97;;
3133;SDS011;1577;49.912;10.924;2023-07-24T02:16:09;15.10;;;3.87;;
3133;SDS011;1577;49.912;10.924;2023-07-24T02:18:36;14.57;;;4.50;;
3133;SDS011;1577;49.912;10.924;2023-07-24T02:21:02;13.83;;;3.47;;
3133;SDS011;1577;49.912;10.924;2023-07-24T02:23:28;15.40;;;3.93;;
3133;SDS011;1577;49.912;10.924;2023-07-24T02:25:54;14.57;;;3.83;;
3133;SDS011;1577;49.912;10.924;2023-07-24T02:28:19;15.00;;;4.20;;
3133;SDS011;1577;49.912;10.924;2023-07-24T02:30:46;14.80;;;3.53;;
3133;SDS011;1577;49.912;10.924;2023-07-24T02:33:12;14.30;;;3.80;;
3133;SDS011;1577;49.912;10.924;2023-07-24T02:35:38;13.60;;;3.77;;
3133;SDS011;1577;49.912;10.924;2023-07-24T02:38:05;15.80;;;3.87;;
3133;SDS011;1577;49.912;10.924;2023-07-24T02:40:30;15.13;;;4.10;;
3133;SDS011;1577;49.912;10.924;2023-07-24T02:42:56;14.20;;;3.63;;
3133;SDS011;1577;49.912;10.924;2023-07-24T02:45:21;15.17;;;4.07;;
3133;SDS011;1577;49.912;10.924;2023-07-24T02:47:47;16.90;;;4.50;;
3133;SDS011;1577;49.912;10.924;2023-07-24T02:50:13;15.63;;;4.43;;
3133;SDS011;1577;49.912;10.924;2023-07-24T02:52:38;15.67;;;4.57;;
3133;SDS011;1577;49.912;10.924;2023-07-24T02:55:04;14.10;;;3.67;;
3133;SDS011;1577;49.912;10.924;2023-07-24T02:57:30;14.73;;;4.40;;
3133;SDS011;1577;49.912;10.924;2023-07-24T02:59:55;15.60;;;4.03;;
3133;SDS011;1577;49.912;10.924;2023-07-24T03:02:21;17.70;;;4.10;;
3133;SDS011;1577;49.912;10.924;2023-07-24T03:04:46;18.30;;;4.57;;
3133;SDS011;1577;49.912;10.924;2023-07-24T03:07:12;14.40;;;4.10;;
3133;SDS011;1577;49.912;10.924;2023-07-24T03:09:37;14.60;;;4.17;;
3133;SDS011;1577;49.912;10.924;2023-07-24T03:12:03;13.80;;;3.30;;
3133;SDS011;1577;49.912;10.924;2023-07-24T03:14:28;14.50;;;4.20;;
3133;SDS011;1577;49.912;10.924;2023-07-24T03:16:54;14.37;;;4.07;;
3133;SDS011;1577;49.912;10.924;2023-07-24T03:19:20;14.10;;;4.10;;
3133;SDS011;1577;49.912;10.924;2023-07-24T03:21:45;15.67;;;3.97;;
3133;SDS011;1577;49.912;10.924;2023-07-24T03:24:11;16.20;;;4.60;;
3133;SDS011;1577;49.912;10.924;2023-07-24T03:26:37;15.03;;;4.10;;
3133;SDS011;1577;49.912;10.924;2023-07-24T03:29:03;14.93;;;4.17;;
3133;SDS011;1577;49.912;10.924;2023-07-24T03:31:29;15.17;;;4.43;;
3133;SDS011;1577;49.912;10.924;2023-07-24T03:33:55;16.17;;;5.00;;
3133;SDS011;1577;49.912;10.924;2023-07-24T03:36:20;15.00;;;4.40;;
3133;SDS011;1577;49.912;10.924;2023-07-24T03:38:46;14.63;;;4.07;;
3133;SDS011;1577;49.912;10.924;2023-07-24T03:41:12;14.67;;;4.27;;
3133;SDS011;1577;49.912;10.924;2023-07-24T03:43:37;16.07;;;4.50;;
3133;SDS011;1577;49.912;10.924;2023-07-24T03:46:03;17.70;;;5.27;;
3133;SDS011;1577;49.912;10.924;2023-07-24T03:48:28;15.87;;;4.50;;
3133;SDS011;1577;49.912;10.924;2023-07-24T03:50:57;16.10;;;5.20;;
3133;SDS011;1577;49.912;10.924;2023-07-24T03:53:24;16.93;;;4.97;;
3133;SDS011;1577;49.912;10.924;2023-07-24T03:55:50;15.00;;;4.20;;
3133;SDS011;1577;49.912;10.924;2023-07-24T03:58:16;15.70;;;4.43;;
3133;SDS011;1577;49.912;10.924;2023-07-24T04:00:41;15.60;;;4.83;;
3133;SDS011;1577;49.912;10.924;2023-07-24T04:03:07;14.70;;;4.23;;
3133;SDS011;1577;49.912;10.924;2023-07-24T04:05:34;16.10;;;4.33;;
3133;SDS011;1577;49.912;10.924;2023-07-24T04:08:00;15.30;;;4.20;;
3133;SDS011;1577;49.912;10.924;2023-07-24T04:10:26;20.00;;;4.90;;
3133;SDS011;1577;49.912;10.924;2023-07-24T04:12:52;17.23;;;4.93;;
3133;SDS011;1577;49.912;10.924;2023-07-24T04:15:18;17.70;;;4.77;;
3133;SDS011;1577;49.912;10.924;2023-07-24T04:17:43;15.30;;;4.37;;
3133;SDS011;1577;49.912;10.924;2023-07-24T04:20:09;14.83;;;4.53;;
3133;SDS011;1577;49.912;10.924;2023-07-24T04:22:35;14.23;;;4.50;;
3133;SDS011;1577;49.912;10.924;2023-07-24T04:25:00;15.23;;;4.70;;
3133;SDS011;1577;49.912;10.924;2023-07-24T04:27:26;16.80;;;5.00;;
3133;SDS011;1577;49.912;10.924;2023-07-24T04:29:51;16.13;;;4.07;;
3133;SDS011;1577;49.912;10.924;2023-07-24T04:32:17;15.30;;;4.80;;
3133;SDS011;1577;49.912;10.924;2023-07-24T04:34:42;16.53;;;5.07;;
3133;SDS011;1577;49.912;10.924;2023-07-24T04:37:08;16.37;;;5.07;;
3133;SDS011;1577;49.912;10.924;2023-07-24T04:39:34;16.07;;;4.70;;
3133;SDS011;1577;49.912;10.924;2023-07-24T04:41:59;16.63;;;4.67;;
3133;SDS011;1577;49.912;10.924;2023-07-24T04:44:25;16.13;;;4.77;;
3133;SDS011;1577;49.912;10.924;2023-07-24T04:46:50;16.57;;;4.73;;
3133;SDS011;1577;49.912;10.924;2023-07-24T04:49:16;16.43;;;4.87;;
3133;SDS011;1577;49.912;10.924;2023-07-24T04:51:44;16.50;;;5.23;;
3133;SDS011;1577;49.912;10.924;2023-07-24T04:54:10;16.90;;;5.33;;
3133;SDS011;1577;49.912;10.924;2023-07-24T04:56:35;17.50;;;5.23;;
3133;SDS011;1577;49.912;10.924;2023-07-24T04:59:01;15.80;;;4.67;;
3133;SDS011;1577;49.912;10.924;2023-07-24T05:01:26;17.07;;;5.13;;
3133;SDS011;1577;49.912;10.924;2023-07-24T05:03:52;17.30;;;5.60;;
3133;SDS011;1577;49.912;10.924;2023-07-24T05:06:18;15.97;;;5.47;;
3133;SDS011;1577;49.912;10.924;2023-07-24T05:08:43;17.43;;;5.80;;
3133;SDS011;1577;49.912;10.924;2023-07-24T05:11:09;16.60;;;5.30;;
3133;SDS011;1577;49.912;10.924;2023-07-24T05:13:34;16.87;;;5.87;;
3133;SDS011;1577;49.912;10.924;2023-07-24T05:16:00;16.30;;;4.70;;
3133;SDS011;1577;49.912;10.924;2023-07-24T05:18:25;16.53;;;5.40;;
3133;SDS011;1577;49.912;10.924;2023-07-24T05:20:51;16.30;;;5.90;;
3133;SDS011;1577;49.912;10.924;2023-07-24T05:23:17;18.83;;;5.20;;
3133;SDS011;1577;49.912;10.924;2023-07-24T05:25:42;19.00;;;6.27;;
3133;SDS011;1577;49.912;10.924;2023-07-24T05:28:08;17.33;;;6.07;;
3133;SDS011;1577;49.912;10.924;2023-07-24T05:30:34;17.97;;;5.40;;
3133;SDS011;1577;49.912;10.924;2023-07-24T05:33:00;16.77;;;5.30;;
3133;SDS011;1577;49.912;10.924;2023-07-24T05:35:26;19.17;;;5.83;;
3133;SDS011;1577;49.912;10.924;2023-07-24T05:37:51;20.83;;;6.10;;
3133;SDS011;1577;49.912;10.924;2023-07-24T05:40:17;19.03;;;6.30;;
3133;SDS011;1577;49.912;10.924;2023-07-24T05:42:42;18.57;;;5.13;;
3133;SDS011;1577;49.912;10.924;2023-07-24T05:45:08;18.63;;;5.63;;
3133;SDS011;1577;49.912;10.924;2023-07-24T05:47:39;15.97;;;5.13;;
3133;SDS011;1577;49.912;10.924;2023-07-24T05:50:05;16.60;;;5.90;;
3133;SDS011;1577;49.912;10.924;2023-07-24T05:52:31;20.27;;;6.10;;
3133;SDS011;1577;49.912;10.924;2023-07-24T05:54:56;18.33;;;6.10;;
3133;SDS011;1577;49.912;10.924;2023-07-24T05:57:22;19.10;;;5.90;;
3133;SDS011;1577;49.912;10.924;2023-07-24T05:59:48;20.03;;;5.70;;
3133;SDS011;1577;49.912;10.924;2023-07-24T06:02:15;16.80;;;6.30;;
3133;SDS011;1577;49.912;10.924;2023-07-24T06:04:40;19.33;;;5.47;;
3133;SDS011;1577;49.912;10.924;2023-07-24T06:07:06;18.70;;;5.63;;
3133;SDS011;1577;49.912;10.924;2023-07-24T06:09:31;17.00;;;6.57;;
3133;SDS011;1577;49.912;10.924;2023-07-24T06:11:57;16.67;;;6.17;;
3133;SDS011;1577;49.912;10.924;2023-07-24T06:14:23;17.10;;;5.63;;
3133;SDS011;1577;49.912;10.924;2023-07-24T06:16:48;17.57;;;6.20;;
3133;SDS011;1577;49.912;10.924;2023-07-24T06:19:14;16.43;;;5.50;;
3133;SDS011;1577;49.912;10.924;2023-07-24T06:21:40;16.37;;;5.27;;
3133;SDS011;1577;49.912;10.924;2023-07-24T06:24:06;16.90;;;5.70;;
3133;SDS011;1577;49.912;10.924;2023-07-24T06:26:36;18.97;;;6.20;;
3133;SDS011;1577;49.912;10.924;2023-07-24T06:29:02;15.53;;;5.23;;
3133;SDS011;1577;49.912;10.924;2023-07-24T06:31:28;16.07;;;5.23;;
3133;SDS011;1577;49.912;10.924;2023-07-24T06:33:53;16.90;;;5.47;;
3133;SDS011;1577;49.912;10.924;2023-07-24T06:36:19;16.50;;;5.50;;
3133;SDS011;1577;49.912;10.924;2023-07-24T06:38:44;17.27;;;6.03;;
3133;SDS011;1577;49.912;10.924;2023-07-24T06:41:11;18.30;;;5.47;;
3133;SDS011;1577;49.912;10.924;2023-07-24T06:43:37;17.03;;;5.57;;
3133;SDS011;1577;49.912;10.924;2023-07-24T06:46:03;16.70;;;5.40;;
3133;SDS011;1577;49.912;10.924;2023-07-24T06:48:29;18.40;;;5.53;;
3133;SDS011;1577;49.912;10.924;2023-07-24T06:50:54;15.00;;;4.80;;
3133;SDS011;1577;49.912;10.924;2023-07-24T06:53:20;17.03;;;5.30;;
3133;SDS011;1577;49.912;10.924;2023-07-24T06:55:45;15.53;;;4.90;;
3133;SDS011;1577;49.912;10.924;2023-07-24T06:58:11;16.37;;;5.20;;
3133;SDS011;1577;49.912;10.924;2023-07-24T07:00:36;18.37;;;5.93;;
3133;SDS011;1577;49.912;10.924;2023-07-24T07:03:02;18.87;;;5.80;;
3133;SDS011;1577;49.912;10.924;2023-07-24T07:05:28;17.17;;;5.70;;
3133;SDS011;1577;49.912;10.924;2023-07-24T07:07:53;15.60;;;5.00;;
3133;SDS011;1577;49.912;10.924;2023-07-24T07:10:19;15.87;;;5.60;;
3133;SDS011;1577;49.912;10.924;2023-07-24T07:12:44;16.77;;;6.13;;
3133;SDS011;1577;49.912;10.924;2023-07-24T07:15:10;17.17;;;5.57;;
3133;SDS011;1577;49.912;10.924;2023-07-24T07:17:35;16.13;;;5.10;;
3133;SDS011;1577;49.912;10.924;2023-07-24T07:20:01;15.10;;;4.73;;
3133;SDS011;1577;49.912;10.924;2023-07-24T07:22:27;14.80;;;5.07;;
3133;SDS011;1577;49.912;10.924;2023-07-24T07:24:53;16.80;;;5.33;;
3133;SDS011;1577;49.912;10.924;2023-07-24T07:27:21;17.00;;;5.30;;
3133;SDS011;1577;49.912;10.924;2023-07-24T07:29:47;15.73;;;4.90;;
3133;SDS011;1577;49.912;10.924;2023-07-24T07:32:13;17.60;;;6.00;;
3133;SDS011;1577;49.912;10.924;2023-07-24T07:34:38;20.20;;;5.13;;
3133;SDS011;1577;49.912;10.924;2023-07-24T07:37:04;15.60;;;5.37;;
3133;SDS011;1577;49.912;10.924;2023-07-24T07:39:31;15.17;;;5.20;;
3133;SDS011;1577;49.912;10.924;2023-07-24T07:41:57;14.80;;;5.40;;
3133;SDS011;1577;49.912;10.924;2023-07-24T07:44:23;20.10;;;5.83;;
3133;SDS011;1577;49.912;10.924;2023-07-24T07:46:48;18.53;;;6.00;;
3133;SDS011;1577;49.912;10.924;2023-07-24T07:49:14;16.13;;;5.63;;
3133;SDS011;1577;49.912;10.924;2023-07-24T07:51:40;15.90;;;6.40;;
3133;SDS011;1577;49.912;10.924;2023-07-24T07:54:05;15.73;;;5.60;;
3133;SDS011;1577;49.912;10.924;2023-07-24T07:56:31;15.50;;;5.80;;
3133;SDS011;1577;49.912;10.924;2023-07-24T07:58:56;16.63;;;5.17;;
3133;SDS011;1577;49.912;10.924;2023-07-24T08:01:22;16.50;;;5.20;;
3133;SDS011;1577;49.912;10.924;2023-07-24T08:03:48;14.13;;;4.73;;
3133;SDS011;1577;49.912;10.924;2023-07-24T08:06:13;17.73;;;6.43;;
3133;SDS011;1577;49.912;10.924;2023-07-24T08:08:39;22.03;;;6.40;;
3133;SDS011;1577;49.912;10.924;2023-07-24T08:11:05;17.10;;;5.90;;
3133;SDS011;1577;49.912;10.924;2023-07-24T08:13:31;16.13;;;5.47;;
3133;SDS011;1577;49.912;10.924;2023-07-24T08:15:57;16.00;;;5.77;;
3133;SDS011;1577;49.912;10.924;2023-07-24T08:18:24;20.87;;;5.90;;
3133;SDS011;1577;49.912;10.924;2023-07-24T08:20:50;16.00;;;5.10;;
3133;SDS011;1577;49.912;10.924;2023-07-24T08:23:16;16.30;;;5.40;;
3133;SDS011;1577;49.912;10.924;2023-07-24T08:25:54;16.53;;;5.33;;
3133;SDS011;1577;49.912;10.924;2023-07-24T08:28:20;16.10;;;5.47;;
3133;SDS011;1577;49.912;10.924;2023-07-24T08:30:46;15.67;;;5.50;;
3133;SDS011;1577;49.912;10.924;2023-07-24T08:33:20;16.83;;;5.50;;
3133;SDS011;1577;49.912;10.924;2023-07-24T08:35:46;17.23;;;5.83;;
3133;SDS011;1577;49.912;10.924;2023-07-24T08:38:11;17.03;;;6.27;;
3133;SDS011;1577;49.912;10.924;2023-07-24T08:40:37;14.53;;;5.10;;
3133;SDS011;1577;49.912;10.924;2023-07-24T08:43:04;14.93;;;5.13;;
3133;SDS011;1577;49.912;10.924;2023-07-24T08:45:30;16.80;;;6.37;;
3133;SDS011;1577;49.912;10.924;2023-07-24T08:47:56;17.70;;;6.33;;
3133;SDS011;1577;49.912;10.924;2023-07-24T08:50:23;15.80;;;5.90;;
3133;SDS011;1577;49.912;10.924;2023-07-24T08:52:50;16.17;;;5.50;;
3133;SDS011;1577;49.912;10.924;2023-07-24T08:55:16;18.37;;;6.17;;
3133;SDS011;1577;49.912;10.924;2023-07-24T08:57:41;17.87;;;5.73;;
3133;SDS011;1577;49.912;10.924;2023-07-24T09:00:07;15.97;;;5.80;;
3133;SDS011;1577;49.912;10.924;2023-07-24T09:02:33;19.03;;;6.60;;
3133;SDS011;1577;49.912;10.924;2023-07-24T09:05:00;16.30;;;5.60;;
3133;SDS011;1577;49.912;10.924;2023-07-24T09:07:26;17.73;;;6.70;;
3133;SDS011;1577;49.912;10.924;2023-07-24T09:09:52;16.37;;;5.70;;
3133;SDS011;1577;49.912;10.924;2023-07-24T09:12:17;18.77;;;6.20;;
3133;SDS011;1577;49.912;10.924;2023-07-24T09:14:43;17.07;;;5.93;;
3133;SDS011;1577;49.912;10.924;2023-07-24T09:17:10;14.90;;;5.00;;
3133;SDS011;1577;49.912;10.924;2023-07-24T09:19:37;16.63;;;6.20;;
3133;SDS011;1577;49.912;10.924;2023-07-24T09:24:53;16.60;;;5.87;;
3133;SDS011;1577;49.912;10.924;2023-07-24T09:27:20;16.93;;;6.23;;
3133;SDS011;1577;49.912;10.924;2023-07-24T09:29:49;17.07;;;6.80;;
3133;SDS011;1577;49.912;10.924;2023-07-24T09:32:22;17.37;;;6.20;;
3133;SDS011;1577;49.912;10.924;2023-07-24T09:34:49;18.37;;;6.10;;
3133;SDS011;1577;49.912;10.924;2023-07-24T09:39:50;19.33;;;6.93;;
3133;SDS011;1577;49.912;10.924;2023-07-24T09:42:15;20.47;;;6.97;;
3133;SDS011;1577;49.912;10.924;2023-07-24T09:44:41;18.47;;;6.43;;
3133;SDS011;1577;49.912;10.924;2023-07-24T09:47:07;19.93;;;7.20;;
3133;SDS011;1577;49.912;10.924;2023-07-24T09:49:32;20.60;;;7.27;;
3133;SDS011;1577;49.912;10.924;2023-07-24T09:51:58;21.30;;;8.03;;
3133;SDS011;1577;49.912;10.924;2023-07-24T09:54:30;27.27;;;8.80;;
3133;SDS011;1577;49.912;10.924;2023-07-24T09:57:05;21.07;;;7.50;;
3133;SDS011;1577;49.912;10.924;2023-07-24T09:59:32;20.03;;;7.13;;
3133;SDS011;1577;49.912;10.924;2023-07-24T10:01:59;22.23;;;8.03;;
3133;SDS011;1577;49.912;10.924;2023-07-24T10:04:25;20.30;;;8.50;;
3133;SDS011;1577;49.912;10.924;2023-07-24T10:06:51;20.03;;;8.07;;
3133;SDS011;1577;49.912;10.924;2023-07-24T10:09:16;22.03;;;7.40;;
3133;SDS011;1577;49.912;10.924;2023-07-24T10:11:46;19.20;;;7.30;;
3133;SDS011;1577;49.912;10.924;2023-07-24T10:14:12;19.37;;;7.67;;
3133;SDS011;1577;49.912;10.924;2023-07-24T10:16:38;17.77;;;7.00;;
3133;SDS011;1577;49.912;10.924;2023-07-24T10:19:12;18.97;;;6.97;;
3133;SDS011;1577;49.912;10.924;2023-07-24T10:21:43;20.73;;;7.37;;
3133;SDS011;1577;49.912;10.924;2023-07-24T10:24:11;22.23;;;6.73;;
3133;SDS011;1577;49.912;10.924;2023-07-24T10:26:36;19.13;;;6.73;;
3133;SDS011;1577;49.912;10.924;2023-07-24T10:29:02;21.83;;;7.50;;
3133;SDS011;1577;49.912;10.924;2023-07-24T10:31:28;23.13;;;6.87;;
3133;SDS011;1577;49.912;10.924;2023-07-24T10:33:54;16.43;;;6.60;;
3133;SDS011;1577;49.912;10.924;2023-07-24T10:36:22;19.90;;;6.90;;
3133;SDS011;1577;49.912;10.924;2023-07-24T10:38:52;18.00;;;6.90;;
3133;SDS011;1577;49.912;10.924;2023-07-24T10:41:18;17.70;;;7.00;;
3133;SDS011;1577;49.912;10.924;2023-07-24T10:43:45;17.97;;;6.50;;
3133;SDS011;1577;49.912;10.924;2023-07-24T10:46:13;17.67;;;6.57;;
3133;SDS011;1577;49.912;10.924;2023-07-24T10:48:46;20.97;;;6.90;;
3133;SDS011;1577;49.912;10.924;2023-07-24T10:51:14;17.27;;;6.37;;
3133;SDS011;1577;49.912;10.924;2023-07-24T10:53:58;18.90;;;7.63;;
3133;SDS011;1577;49.912;10.924;2023-07-24T10:56:23;18.70;;;7.00;;
3133;SDS011;1577;49.912;10.924;2023-07-24T10:58:49;19.47;;;6.73;;
3133;SDS011;1577;49.912;10.924;2023-07-24T11:01:15;21.73;;;7.90;;
3133;SDS011;1577;49.912;10.924;2023-07-24T11:03:42;18.80;;;7.70;;
3133;SDS011;1577;49.912;10.924;2023-07-24T11:06:15;17.43;;;6.80;;
3133;SDS011;1577;49.912;10.924;2023-07-24T11:08:53;18.70;;;7.57;;
3133;SDS011;1577;49.912;10.924;2023-07-24T11:11:21;19.10;;;6.67;;
3133;SDS011;1577;49.912;10.924;2023-07-24T11:13:48;18.93;;;7.30;;
3133;SDS011;1577;49.912;10.924;2023-07-24T11:16:14;18.37;;;6.47;;
3133;SDS011;1577;49.912;10.924;2023-07-24T11:18:49;20.23;;;7.50;;
3133;SDS011;1577;49.912;10.924;2023-07-24T11:21:20;18.90;;;6.33;;
3133;SDS011;1577;49.912;10.924;2023-07-24T11:23:53;18.27;;;6.97;;
3133;SDS011;1577;49.912;10.924;2023-07-24T11:26:21;17.87;;;6.30;;
3133;SDS011;1577;49.912;10.924;2023-07-24T11:28:48;17.80;;;6.43;;
3133;SDS011;1577;49.912;10.924;2023-07-24T11:31:15;16.47;;;6.07;;
3133;SDS011;1577;49.912;10.924;2023-07-24T11:33:40;15.80;;;5.60;;
3133;SDS011;1577;49.912;10.924;2023-07-24T11:36:07;19.90;;;6.70;;
3133;SDS011;1577;49.912;10.924;2023-07-24T11:38:33;17.40;;;6.03;;
3133;SDS011;1577;49.912;10.924;2023-07-24T11:40:58;17.50;;;6.23;;
3133;SDS011;1577;49.912;10.924;2023-07-24T11:43:24;18.13;;;6.43;;
3133;SDS011;1577;49.912;10.924;2023-07-24T11:45:51;18.00;;;5.87;;
3133;SDS011;1577;49.912;10.924;2023-07-24T11:48:21;18.40;;;6.47;;
3133;SDS011;1577;49.912;10.924;2023-07-24T11:50:49;18.33;;;5.83;;
3133;SDS011;1577;49.912;10.924;2023-07-24T11:55:48;17.07;;;5.67;;
3133;SDS011;1577;49.912;10.924;2023-07-24T11:58:14;15.40;;;5.70;;
3133;SDS011;1577;49.912;10.924;2023-07-24T12:00:41;16.80;;;5.40;;
3133;SDS011;1577;49.912;10.924;2023-07-24T12:03:07;15.53;;;5.17;;
3133;SDS011;1577;49.912;10.924;2023-07-24T12:05:37;17.00;;;5.43;;
3133;SDS011;1577;49.912;10.924;2023-07-24T12:08:04;14.97;;;4.90;;
3133;SDS011;1577;49.912;10.924;2023-07-24T12:10:29;16.40;;;5.07;;
3133;SDS011;1577;49.912;10.924;2023-07-24T12:12:57;15.57;;;4.83;;
3133;SDS011;1577;49.912;10.924;2023-07-24T12:15:24;16.43;;;5.50;;
3133;SDS011;1577;49.912;10.924;2023-07-24T12:17:51;16.30;;;5.00;;
3133;SDS011;1577;49.912;10.924;2023-07-24T12:20:17;14.83;;;4.83;;
3133;SDS011;1577;49.912;10.924;2023-07-24T12:22:43;15.70;;;5.43;;
3133;SDS011;1577;49.912;10.924;2023-07-24T12:25:08;20.37;;;6.10;;
3133;SDS011;1577;49.912;10.924;2023-07-24T12:27:34;19.93;;;6.07;;
3133;SDS011;1577;49.912;10.924;2023-07-24T12:29:59;15.03;;;4.70;;
3133;SDS011;1577;49.912;10.924;2023-07-24T12:32:27;17.67;;;5.40;;
3133;SDS011;1577;49.912;10.924;2023-07-24T12:34:52;17.93;;;5.70;;
3133;SDS011;1577;49.912;10.924;2023-07-24T12:37:19;16.23;;;5.20;;
3133;SDS011;1577;49.912;10.924;2023-07-24T12:39:45;18.60;;;5.50;;
3133;SDS011;1577;49.912;10.924;2023-07-24T12:42:12;15.73;;;5.37;;
3133;SDS011;1577;49.912;10.924;2023-07-24T12:44:38;17.03;;;5.20;;
3133;SDS011;1577;49.912;10.924;2023-07-24T12:47:04;15.10;;;4.83;;
3133;SDS011;1577;49.912;10.924;2023-07-24T12:49:30;15.43;;;5.17;;
3133;SDS011;1577;49.912;10.924;2023-07-24T12:51:56;17.60;;;5.60;;
3133;SDS011;1577;49.912;10.924;2023-07-24T12:54:21;15.50;;;5.27;;
3133;SDS011;1577;49.912;10.924;2023-07-24T12:56:47;16.20;;;5.30;;
3133;SDS011;1577;49.912;10.924;2023-07-24T12:59:19;18.33;;;5.77;;
3133;SDS011;1577;49.912;10.924;2023-07-24T13:01:45;16.20;;;6.20;;
3133;SDS011;1577;49.912;10.924;2023-07-24T13:04:11;15.00;;;4.77;;
3133;SDS011;1577;49.912;10.924;2023-07-24T13:06:36;16.93;;;5.30;;
3133;SDS011;1577;49.912;10.924;2023-07-24T13:09:02;15.63;;;5.60;;
3133;SDS011;1577;49.912;10.924;2023-07-24T13:11:28;15.13;;;5.00;;
3133;SDS011;1577;49.912;10.924;2023-07-24T13:13:54;17.40;;;5.77;;
3133;SDS011;1577;49.912;10.924;2023-07-24T13:16:20;15.00;;;5.20;;
3133;SDS011;1577;49.912;10.924;2023-07-24T13:18:46;17.70;;;6.00;;
3133;SDS011;1577;49.912;10.924;2023-07-24T13:21:12;15.80;;;5.50;;
3133;SDS011;1577;49.912;10.924;2023-07-24T13:23:39;15.77;;;4.93;;
3133;SDS011;1577;49.912;10.924;2023-07-24T13:26:07;16.13;;;5.40;;
3133;SDS011;1577;49.912;10.924;2023-07-24T13:28:35;13.67;;;4.60;;
3133;SDS011;1577;49.912;10.924;2023-07-24T13:31:13;15.90;;;5.23;;
3133;SDS011;1577;49.912;10.924;2023-07-24T13:33:41;17.07;;;6.03;;
3133;SDS011;1577;49.912;10.924;2023-07-24T13:36:07;15.83;;;5.87;;
3133;SDS011;1577;49.912;10.924;2023-07-24T13:38:33;16.53;;;5.30;;
3133;SDS011;1577;49.912;10.924;2023-07-24T13:40:59;16.47;;;5.50;;
3133;SDS011;1577;49.912;10.924;2023-07-24T13:43:25;15.70;;;5.03;;
3133;SDS011;1577;49.912;10.924;2023-07-24T13:45:50;15.63;;;4.67;;
3133;SDS011;1577;49.912;10.924;2023-07-24T13:48:16;15.40;;;5.43;;
3133;SDS011;1577;49.912;10.924;2023-07-24T13:50:41;14.40;;;4.90;;
3133;SDS011;1577;49.912;10.924;2023-07-24T13:53:07;15.80;;;4.70;;
3133;SDS011;1577;49.912;10.924;2023-07-24T13:55:33;15.60;;;5.03;;
3133;SDS011;1577;49.912;10.924;2023-07-24T13:57:58;14.43;;;4.90;;
3133;SDS011;1577;49.912;10.924;2023-07-24T14:00:24;19.17;;;5.20;;
3133;SDS011;1577;49.912;10.924;2023-07-24T14:02:50;16.10;;;5.07;;
3133;SDS011;1577;49.912;10.924;2023-07-24T14:05:16;14.33;;;4.70;;
3133;SDS011;1577;49.912;10.924;2023-07-24T14:07:41;18.33;;;4.50;;
3133;SDS011;1577;49.912;10.924;2023-07-24T14:10:07;14.20;;;4.93;;
3133;SDS011;1577;49.912;10.924;2023-07-24T14:12:34;14.77;;;4.87;;
3133;SDS011;1577;49.912;10.924;2023-07-24T14:14:59;15.33;;;4.47;;
3133;SDS011;1577;49.912;10.924;2023-07-24T14:17:25;14.87;;;4.40;;
3133;SDS011;1577;49.912;10.924;2023-07-24T14:19:51;13.80;;;4.47;;
3133;SDS011;1577;49.912;10.924;2023-07-24T14:22:16;15.60;;;4.10;;
3133;SDS011;1577;49.912;10.924;2023-07-24T14:24:42;15.40;;;4.60;;
3133;SDS011;1577;49.912;10.924;2023-07-24T14:27:07;13.70;;;4.33;;
3133;SDS011;1577;49.912;10.924;2023-07-24T14:29:33;14.33;;;4.37;;
3133;SDS011;1577;49.912;10.924;2023-07-24T14:31:59;13.63;;;4.07;;
3133;SDS011;1577;49.912;10.924;2023-07-24T14:34:24;13.30;;;3.90;;
3133;SDS011;1577;49.912;10.924;2023-07-24T14:36:50;13.73;;;4.13;;
3133;SDS011;1577;49.912;10.924;2023-07-24T14:39:17;14.20;;;4.50;;
3133;SDS011;1577;49.912;10.924;2023-07-24T14:41:43;16.37;;;4.80;;
3133;SDS011;1577;49.912;10.924;2023-07-24T14:44:08;13.40;;;4.17;;
3133;SDS011;1577;49.912;10.924;2023-07-24T14:46:35;15.00;;;4.70;;
3133;SDS011;1577;49.912;10.924;2023-07-24T14:49:01;16.17;;;5.10;;
3133;SDS011;1577;49.912;10.924;2023-07-24T14:51:26;14.57;;;4.50;;
3133;SDS011;1577;49.912;10.924;2023-07-24T14:53:52;14.53;;;4.03;;
3133;SDS011;1577;49.912;10.924;2023-07-24T14:56:18;15.00;;;4.30;;
3133;SDS011;1577;49.912;10.924;2023-07-24T14:58:45;14.47;;;4.43;;